sensor_id;sensor_type;location;lat;lon;timestamp;P1;durP1;ratioP1;P2;durP2;ratioP2
35990;SDS011;22064;42.672;23.282;2022-07-01T00:00:14;11.30;;;5.50;;
35990;SDS011;22064;42.672;23.282;2022-07-01T00:02:40;10.10;;;5.50;;
35990;SDS011;22064;42.672;23.282;2022-07-01T00:05:05;12.20;;;6.00;;
35990;SDS011;22064;42.672;23.282;2022-07-01T00:07:43;10.85;;;5.82;;
35990;SDS011;22064;42.672;23.282;2022-07-01T00:10:09;11.88;;;5.68;;
35990;SDS011;22064;42.672;23.282;2022-07-01T00:12:35;8.35;;;5.30;;
35990;SDS011;22064;42.672;23.282;2022-07-01T00:15:00;10.63;;;5.40;;
35990;SDS011;22064;42.672;23.282;2022-07-01T00:17:26;10.25;;;5.30;;
35990;SDS011;22064;42.672;23.282;2022-07-01T00:19:51;9.88;;;5.15;;
35990;SDS011;22064;42.672;23.282;2022-07-01T00:22:17;9.25;;;5.00;;
35990;SDS011;22064;42.672;23.282;2022-07-01T00:24:43;11.07;;;4.90;;
35990;SDS011;22064;42.672;23.282;2022-07-01T00:27:10;11.40;;;5.68;;
35990;SDS011;22064;42.672;23.282;2022-07-01T00:29:36;10.02;;;5.70;;
35990;SDS011;22064;42.672;23.282;2022-07-01T00:32:01;8.30;;;4.88;;
35990;SDS011;22064;42.672;23.282;2022-07-01T00:34:27;11.40;;;5.13;;
35990;SDS011;22064;42.672;23.282;2022-07-01T00:36:53;10.05;;;5.10;;
35990;SDS011;22064;42.672;23.282;2022-07-01T00:39:18;8.52;;;4.85;;
35990;SDS011;22064;42.672;23.282;2022-07-01T00:41:44;7.22;;;4.43;;
35990;SDS011;22064;42.672;23.282;2022-07-01T00:44:19;8.32;;;4.53;;
35990;SDS011;22064;42.672;23.282;2022-07-01T00:46:45;8.52;;;5.05;;
35990;SDS011;22064;42.672;23.282;2022-07-01T00:49:12;8.25;;;4.90;;
35990;SDS011;22064;42.672;23.282;2022-07-01T00:51:38;7.90;;;5.05;;
35990;SDS011;22064;42.672;23.282;2022-07-01T00:54:04;9.52;;;5.35;;
35990;SDS011;22064;42.672;23.282;2022-07-01T00:56:29;10.90;;;5.80;;
35990;SDS011;22064;42.672;23.282;2022-07-01T00:58:55;10.55;;;5.93;;
35990;SDS011;22064;42.672;23.282;2022-07-01T01:01:21;9.00;;;5.68;;
35990;SDS011;22064;42.672;23.282;2022-07-01T01:03:48;10.63;;;5.72;;
35990;SDS011;22064;42.672;23.282;2022-07-01T01:06:14;12.05;;;5.93;;
35990;SDS011;22064;42.672;23.282;2022-07-01T01:08:41;12.52;;;6.15;;
35990;SDS011;22064;42.672;23.282;2022-07-01T01:11:07;11.55;;;5.57;;
35990;SDS011;22064;42.672;23.282;2022-07-01T01:13:33;11.98;;;6.53;;
35990;SDS011;22064;42.672;23.282;2022-07-01T01:15:58;12.75;;;6.05;;
35990;SDS011;22064;42.672;23.282;2022-07-01T01:18:24;12.18;;;6.13;;
35990;SDS011;22064;42.672;23.282;2022-07-01T01:20:51;13.80;;;6.95;;
35990;SDS011;22064;42.672;23.282;2022-07-01T01:23:17;10.95;;;6.20;;
35990;SDS011;22064;42.672;23.282;2022-07-01T01:25:43;15.80;;;6.32;;
35990;SDS011;22064;42.672;23.282;2022-07-01T01:28:11;12.52;;;6.30;;
35990;SDS011;22064;42.672;23.282;2022-07-01T01:30:37;9.85;;;5.95;;
35990;SDS011;22064;42.672;23.282;2022-07-01T01:33:03;11.95;;;5.78;;
35990;SDS011;22064;42.672;23.282;2022-07-01T01:35:28;9.27;;;6.20;;
35990;SDS011;22064;42.672;23.282;2022-07-01T01:37:54;10.27;;;5.70;;
35990;SDS011;22064;42.672;23.282;2022-07-01T01:40:20;10.93;;;6.03;;
35990;SDS011;22064;42.672;23.282;2022-07-01T01:42:45;11.57;;;6.00;;
35990;SDS011;22064;42.672;23.282;2022-07-01T01:45:11;13.68;;;6.40;;
35990;SDS011;22064;42.672;23.282;2022-07-01T01:47:38;11.88;;;6.50;;
35990;SDS011;22064;42.672;23.282;2022-07-01T01:50:07;14.88;;;6.28;;
35990;SDS011;22064;42.672;23.282;2022-07-01T01:52:36;11.90;;;6.45;;
35990;SDS011;22064;42.672;23.282;2022-07-01T01:55:03;12.05;;;6.30;;
35990;SDS011;22064;42.672;23.282;2022-07-01T01:57:30;11.07;;;5.97;;
35990;SDS011;22064;42.672;23.282;2022-07-01T01:59:55;13.93;;;6.32;;
35990;SDS011;22064;42.672;23.282;2022-07-01T02:02:21;11.73;;;6.35;;
35990;SDS011;22064;42.672;23.282;2022-07-01T02:04:47;11.82;;;6.50;;
35990;SDS011;22064;42.672;23.282;2022-07-01T02:07:12;8.82;;;5.90;;
35990;SDS011;22064;42.672;23.282;2022-07-01T02:09:38;16.25;;;6.65;;
35990;SDS011;22064;42.672;23.282;2022-07-01T02:12:04;10.23;;;6.25;;
35990;SDS011;22064;42.672;23.282;2022-07-01T02:14:29;13.32;;;6.68;;
35990;SDS011;22064;42.672;23.282;2022-07-01T02:16:55;14.82;;;6.55;;
35990;SDS011;22064;42.672;23.282;2022-07-01T02:19:21;10.90;;;6.20;;
35990;SDS011;22064;42.672;23.282;2022-07-01T02:21:46;11.32;;;6.50;;
35990;SDS011;22064;42.672;23.282;2022-07-01T02:24:12;12.43;;;6.22;;
35990;SDS011;22064;42.672;23.282;2022-07-01T02:26:37;13.50;;;6.28;;
35990;SDS011;22064;42.672;23.282;2022-07-01T02:29:03;13.88;;;6.22;;
35990;SDS011;22064;42.672;23.282;2022-07-01T02:31:29;10.23;;;6.25;;
35990;SDS011;22064;42.672;23.282;2022-07-01T02:33:55;12.77;;;6.45;;
35990;SDS011;22064;42.672;23.282;2022-07-01T02:36:20;13.18;;;5.97;;
35990;SDS011;22064;42.672;23.282;2022-07-01T02:38:46;12.45;;;6.80;;
35990;SDS011;22064;42.672;23.282;2022-07-01T02:41:11;14.65;;;6.15;;
35990;SDS011;22064;42.672;23.282;2022-07-01T02:43:37;11.35;;;6.85;;
35990;SDS011;22064;42.672;23.282;2022-07-01T02:46:03;11.27;;;6.40;;
35990;SDS011;22064;42.672;23.282;2022-07-01T02:48:29;16.60;;;7.10;;
35990;SDS011;22064;42.672;23.282;2022-07-01T02:50:54;11.15;;;6.25;;
35990;SDS011;22064;42.672;23.282;2022-07-01T02:53:20;14.68;;;6.60;;
35990;SDS011;22064;42.672;23.282;2022-07-01T02:55:46;14.02;;;6.55;;
35990;SDS011;22064;42.672;23.282;2022-07-01T02:58:12;15.65;;;6.75;;
35990;SDS011;22064;42.672;23.282;2022-07-01T03:00:37;12.82;;;6.93;;
35990;SDS011;22064;42.672;23.282;2022-07-01T03:03:03;11.63;;;6.63;;
35990;SDS011;22064;42.672;23.282;2022-07-01T03:05:28;11.75;;;7.22;;
35990;SDS011;22064;42.672;23.282;2022-07-01T03:07:54;12.27;;;6.65;;
35990;SDS011;22064;42.672;23.282;2022-07-01T03:10:20;9.55;;;6.07;;
35990;SDS011;22064;42.672;23.282;2022-07-01T03:12:45;13.77;;;6.32;;
35990;SDS011;22064;42.672;23.282;2022-07-01T03:15:12;12.07;;;6.55;;
35990;SDS011;22064;42.672;23.282;2022-07-01T03:17:42;11.25;;;6.20;;
35990;SDS011;22064;42.672;23.282;2022-07-01T03:20:11;14.65;;;6.40;;
35990;SDS011;22064;42.672;23.282;2022-07-01T03:22:39;10.60;;;6.22;;
35990;SDS011;22064;42.672;23.282;2022-07-01T03:25:06;10.88;;;6.68;;
35990;SDS011;22064;42.672;23.282;2022-07-01T03:27:32;11.85;;;6.60;;
35990;SDS011;22064;42.672;23.282;2022-07-01T03:29:58;16.13;;;6.22;;
35990;SDS011;22064;42.672;23.282;2022-07-01T03:32:24;14.68;;;6.32;;
35990;SDS011;22064;42.672;23.282;2022-07-01T03:34:51;12.05;;;6.00;;
35990;SDS011;22064;42.672;23.282;2022-07-01T03:37:18;11.50;;;6.10;;
35990;SDS011;22064;42.672;23.282;2022-07-01T03:39:45;12.25;;;6.30;;
35990;SDS011;22064;42.672;23.282;2022-07-01T03:42:11;10.55;;;6.07;;
35990;SDS011;22064;42.672;23.282;2022-07-01T03:44:37;15.25;;;6.40;;
35990;SDS011;22064;42.672;23.282;2022-07-01T03:47:04;13.43;;;6.32;;
35990;SDS011;22064;42.672;23.282;2022-07-01T03:49:33;9.43;;;6.20;;
35990;SDS011;22064;42.672;23.282;2022-07-01T03:52:00;14.98;;;6.57;;
35990;SDS011;22064;42.672;23.282;2022-07-01T03:54:26;14.50;;;6.10;;
35990;SDS011;22064;42.672;23.282;2022-07-01T03:57:02;16.40;;;6.78;;
35990;SDS011;22064;42.672;23.282;2022-07-01T03:59:30;13.65;;;6.47;;
35990;SDS011;22064;42.672;23.282;2022-07-01T04:01:57;14.93;;;6.60;;
35990;SDS011;22064;42.672;23.282;2022-07-01T04:04:24;14.50;;;6.90;;
35990;SDS011;22064;42.672;23.282;2022-07-01T04:06:50;14.05;;;6.93;;
35990;SDS011;22064;42.672;23.282;2022-07-01T04:09:17;15.50;;;6.90;;
35990;SDS011;22064;42.672;23.282;2022-07-01T04:11:44;15.77;;;6.47;;
35990;SDS011;22064;42.672;23.282;2022-07-01T04:14:11;19.23;;;7.50;;
35990;SDS011;22064;42.672;23.282;2022-07-01T04:16:37;15.63;;;6.80;;
35990;SDS011;22064;42.672;23.282;2022-07-01T04:19:03;13.70;;;6.82;;
35990;SDS011;22064;42.672;23.282;2022-07-01T04:21:29;14.98;;;7.20;;
35990;SDS011;22064;42.672;23.282;2022-07-01T04:24:13;12.40;;;7.00;;
35990;SDS011;22064;42.672;23.282;2022-07-01T04:26:39;14.20;;;6.93;;
35990;SDS011;22064;42.672;23.282;2022-07-01T04:29:05;15.35;;;7.28;;
35990;SDS011;22064;42.672;23.282;2022-07-01T04:31:33;13.93;;;7.07;;
35990;SDS011;22064;42.672;23.282;2022-07-01T04:33:59;13.68;;;6.78;;
35990;SDS011;22064;42.672;23.282;2022-07-01T04:36:25;15.32;;;6.75;;
35990;SDS011;22064;42.672;23.282;2022-07-01T04:38:51;15.90;;;7.07;;
35990;SDS011;22064;42.672;23.282;2022-07-01T04:41:16;12.20;;;6.45;;
35990;SDS011;22064;42.672;23.282;2022-07-01T04:44:00;15.15;;;6.85;;
35990;SDS011;22064;42.672;23.282;2022-07-01T04:46:26;15.23;;;7.22;;
35990;SDS011;22064;42.672;23.282;2022-07-01T04:48:52;17.77;;;6.90;;
35990;SDS011;22064;42.672;23.282;2022-07-01T04:51:18;17.55;;;6.95;;
35990;SDS011;22064;42.672;23.282;2022-07-01T04:53:43;16.38;;;6.90;;
35990;SDS011;22064;42.672;23.282;2022-07-01T04:56:09;11.98;;;6.80;;
35990;SDS011;22064;42.672;23.282;2022-07-01T04:58:34;13.57;;;7.55;;
35990;SDS011;22064;42.672;23.282;2022-07-01T05:01:00;14.85;;;6.95;;
35990;SDS011;22064;42.672;23.282;2022-07-01T05:03:26;16.25;;;7.10;;
35990;SDS011;22064;42.672;23.282;2022-07-01T05:05:51;16.73;;;7.70;;
35990;SDS011;22064;42.672;23.282;2022-07-01T05:08:17;18.48;;;7.18;;
35990;SDS011;22064;42.672;23.282;2022-07-01T05:10:42;15.80;;;7.07;;
35990;SDS011;22064;42.672;23.282;2022-07-01T05:13:08;13.10;;;6.55;;
35990;SDS011;22064;42.672;23.282;2022-07-01T05:15:33;18.02;;;7.55;;
35990;SDS011;22064;42.672;23.282;2022-07-01T05:17:59;16.85;;;7.78;;
35990;SDS011;22064;42.672;23.282;2022-07-01T05:20:44;13.98;;;7.88;;
35990;SDS011;22064;42.672;23.282;2022-07-01T05:23:28;15.18;;;7.68;;
35990;SDS011;22064;42.672;23.282;2022-07-01T05:25:53;15.55;;;7.57;;
35990;SDS011;22064;42.672;23.282;2022-07-01T05:28:19;12.85;;;7.22;;
35990;SDS011;22064;42.672;23.282;2022-07-01T05:30:44;18.05;;;8.05;;
35990;SDS011;22064;42.672;23.282;2022-07-01T05:33:10;15.15;;;7.28;;
35990;SDS011;22064;42.672;23.282;2022-07-01T05:35:36;17.45;;;7.35;;
35990;SDS011;22064;42.672;23.282;2022-07-01T05:38:01;12.30;;;6.57;;
35990;SDS011;22064;42.672;23.282;2022-07-01T05:40:27;14.88;;;7.70;;
35990;SDS011;22064;42.672;23.282;2022-07-01T05:42:53;13.38;;;7.13;;
35990;SDS011;22064;42.672;23.282;2022-07-01T05:45:19;15.13;;;7.32;;
35990;SDS011;22064;42.672;23.282;2022-07-01T05:47:45;14.50;;;7.00;;
35990;SDS011;22064;42.672;23.282;2022-07-01T05:50:10;18.20;;;7.80;;
35990;SDS011;22064;42.672;23.282;2022-07-01T05:52:36;15.15;;;7.80;;
35990;SDS011;22064;42.672;23.282;2022-07-01T05:55:01;15.02;;;7.18;;
35990;SDS011;22064;42.672;23.282;2022-07-01T05:57:27;19.67;;;8.15;;
35990;SDS011;22064;42.672;23.282;2022-07-01T05:59:53;13.95;;;7.68;;
35990;SDS011;22064;42.672;23.282;2022-07-01T06:02:18;12.82;;;6.85;;
35990;SDS011;22064;42.672;23.282;2022-07-01T06:04:44;15.85;;;7.40;;
35990;SDS011;22064;42.672;23.282;2022-07-01T06:07:09;16.58;;;7.50;;
35990;SDS011;22064;42.672;23.282;2022-07-01T06:09:35;14.02;;;6.80;;
35990;SDS011;22064;42.672;23.282;2022-07-01T06:12:02;16.63;;;7.35;;
35990;SDS011;22064;42.672;23.282;2022-07-01T06:14:28;14.40;;;7.20;;
35990;SDS011;22064;42.672;23.282;2022-07-01T06:16:54;16.02;;;7.55;;
35990;SDS011;22064;42.672;23.282;2022-07-01T06:19:19;12.25;;;6.35;;
35990;SDS011;22064;42.672;23.282;2022-07-01T06:21:45;20.70;;;7.75;;
35990;SDS011;22064;42.672;23.282;2022-07-01T06:24:11;14.75;;;7.18;;
35990;SDS011;22064;42.672;23.282;2022-07-01T06:26:36;16.73;;;7.28;;
35990;SDS011;22064;42.672;23.282;2022-07-01T06:29:02;14.75;;;7.05;;
35990;SDS011;22064;42.672;23.282;2022-07-01T06:31:27;16.20;;;6.95;;
35990;SDS011;22064;42.672;23.282;2022-07-01T06:33:53;14.65;;;6.68;;
35990;SDS011;22064;42.672;23.282;2022-07-01T06:36:19;14.95;;;6.97;;
35990;SDS011;22064;42.672;23.282;2022-07-01T06:38:45;14.45;;;7.00;;
35990;SDS011;22064;42.672;23.282;2022-07-01T06:41:11;14.55;;;6.85;;
35990;SDS011;22064;42.672;23.282;2022-07-01T06:43:55;12.68;;;6.93;;
35990;SDS011;22064;42.672;23.282;2022-07-01T06:46:21;19.38;;;7.70;;
35990;SDS011;22064;42.672;23.282;2022-07-01T06:48:48;15.45;;;7.50;;
35990;SDS011;22064;42.672;23.282;2022-07-01T06:51:13;12.93;;;6.53;;
35990;SDS011;22064;42.672;23.282;2022-07-01T06:53:39;11.98;;;6.78;;
35990;SDS011;22064;42.672;23.282;2022-07-01T06:56:05;17.75;;;8.32;;
35990;SDS011;22064;42.672;23.282;2022-07-01T06:58:30;13.57;;;7.68;;
35990;SDS011;22064;42.672;23.282;2022-07-01T07:00:57;18.50;;;8.13;;
35990;SDS011;22064;42.672;23.282;2022-07-01T07:03:22;16.88;;;7.85;;
35990;SDS011;22064;42.672;23.282;2022-07-01T07:05:48;18.67;;;8.00;;
35990;SDS011;22064;42.672;23.282;2022-07-01T07:08:14;15.68;;;7.97;;
35990;SDS011;22064;42.672;23.282;2022-07-01T07:10:39;18.80;;;8.50;;
35990;SDS011;22064;42.672;23.282;2022-07-01T07:13:05;17.38;;;8.27;;
35990;SDS011;22064;42.672;23.282;2022-07-01T07:15:31;18.63;;;8.02;;
35990;SDS011;22064;42.672;23.282;2022-07-01T07:17:56;17.65;;;7.95;;
35990;SDS011;22064;42.672;23.282;2022-07-01T07:20:26;19.25;;;7.97;;
35990;SDS011;22064;42.672;23.282;2022-07-01T07:22:52;19.33;;;7.78;;
35990;SDS011;22064;42.672;23.282;2022-07-01T07:25:18;16.70;;;8.05;;
35990;SDS011;22064;42.672;23.282;2022-07-01T07:27:44;16.70;;;8.30;;
35990;SDS011;22064;42.672;23.282;2022-07-01T07:30:12;19.02;;;8.40;;
35990;SDS011;22064;42.672;23.282;2022-07-01T07:32:38;19.33;;;8.20;;
35990;SDS011;22064;42.672;23.282;2022-07-01T07:35:05;16.33;;;7.90;;
35990;SDS011;22064;42.672;23.282;2022-07-01T07:37:32;19.83;;;7.85;;
35990;SDS011;22064;42.672;23.282;2022-07-01T07:40:01;20.58;;;9.20;;
35990;SDS011;22064;42.672;23.282;2022-07-01T07:42:28;18.85;;;8.50;;
35990;SDS011;22064;42.672;23.282;2022-07-01T07:44:54;17.95;;;8.85;;
35990;SDS011;22064;42.672;23.282;2022-07-01T07:47:20;16.77;;;8.32;;
35990;SDS011;22064;42.672;23.282;2022-07-01T07:49:45;18.27;;;8.32;;
35990;SDS011;22064;42.672;23.282;2022-07-01T07:52:11;17.55;;;8.32;;
35990;SDS011;22064;42.672;23.282;2022-07-01T07:54:37;14.75;;;8.02;;
35990;SDS011;22064;42.672;23.282;2022-07-01T07:57:03;18.10;;;7.60;;
35990;SDS011;22064;42.672;23.282;2022-07-01T07:59:29;18.85;;;8.23;;
35990;SDS011;22064;42.672;23.282;2022-07-01T08:01:55;19.17;;;8.98;;
35990;SDS011;22064;42.672;23.282;2022-07-01T08:04:21;17.27;;;8.25;;
35990;SDS011;22064;42.672;23.282;2022-07-01T08:06:46;20.75;;;8.65;;
35990;SDS011;22064;42.672;23.282;2022-07-01T08:09:12;18.48;;;8.88;;
35990;SDS011;22064;42.672;23.282;2022-07-01T08:11:37;18.15;;;9.15;;
35990;SDS011;22064;42.672;23.282;2022-07-01T08:14:03;18.45;;;8.90;;
35990;SDS011;22064;42.672;23.282;2022-07-01T08:16:29;18.23;;;8.98;;
35990;SDS011;22064;42.672;23.282;2022-07-01T08:18:55;20.15;;;8.80;;
35990;SDS011;22064;42.672;23.282;2022-07-01T08:21:21;18.20;;;8.27;;
35990;SDS011;22064;42.672;23.282;2022-07-01T08:23:46;17.80;;;8.40;;
35990;SDS011;22064;42.672;23.282;2022-07-01T08:26:12;19.35;;;8.70;;
35990;SDS011;22064;42.672;23.282;2022-07-01T08:28:40;19.98;;;8.32;;
35990;SDS011;22064;42.672;23.282;2022-07-01T08:31:06;17.90;;;8.32;;
35990;SDS011;22064;42.672;23.282;2022-07-01T08:33:32;16.40;;;8.32;;
35990;SDS011;22064;42.672;23.282;2022-07-01T08:35:57;18.30;;;8.30;;
35990;SDS011;22064;42.672;23.282;2022-07-01T08:38:23;16.92;;;7.90;;
35990;SDS011;22064;42.672;23.282;2022-07-01T08:40:49;18.20;;;8.57;;
35990;SDS011;22064;42.672;23.282;2022-07-01T08:43:15;18.67;;;8.98;;
35990;SDS011;22064;42.672;23.282;2022-07-01T08:45:41;19.40;;;9.02;;
35990;SDS011;22064;42.672;23.282;2022-07-01T08:48:07;16.33;;;8.40;;
35990;SDS011;22064;42.672;23.282;2022-07-01T08:50:34;14.52;;;6.60;;
35990;SDS011;22064;42.672;23.282;2022-07-01T08:53:01;15.68;;;7.45;;
35990;SDS011;22064;42.672;23.282;2022-07-01T08:55:27;14.25;;;6.70;;
35990;SDS011;22064;42.672;23.282;2022-07-01T08:57:54;12.05;;;6.60;;
35990;SDS011;22064;42.672;23.282;2022-07-01T09:00:20;17.45;;;7.35;;
35990;SDS011;22064;42.672;23.282;2022-07-01T09:02:53;12.75;;;6.97;;
35990;SDS011;22064;42.672;23.282;2022-07-01T09:05:23;11.55;;;6.28;;
35990;SDS011;22064;42.672;23.282;2022-07-01T09:08:24;13.35;;;7.15;;
35990;SDS011;22064;42.672;23.282;2022-07-01T09:10:42;15.35;;;6.57;;
35990;SDS011;22064;42.672;23.282;2022-07-01T09:13:08;16.60;;;6.90;;
35990;SDS011;22064;42.672;23.282;2022-07-01T09:15:36;12.32;;;6.32;;
35990;SDS011;22064;42.672;23.282;2022-07-01T09:18:04;13.30;;;6.20;;
35990;SDS011;22064;42.672;23.282;2022-07-01T09:20:35;12.07;;;6.60;;
35990;SDS011;22064;42.672;23.282;2022-07-01T09:23:07;14.43;;;6.35;;
35990;SDS011;22064;42.672;23.282;2022-07-01T09:25:36;11.00;;;6.25;;
35990;SDS011;22064;42.672;23.282;2022-07-01T09:28:06;12.43;;;6.65;;
35990;SDS011;22064;42.672;23.282;2022-07-01T09:30:34;13.73;;;6.30;;
35990;SDS011;22064;42.672;23.282;2022-07-01T09:35:38;13.98;;;6.15;;
35990;SDS011;22064;42.672;23.282;2022-07-01T09:38:05;11.18;;;5.80;;
35990;SDS011;22064;42.672;23.282;2022-07-01T09:43:27;11.68;;;5.65;;
35990;SDS011;22064;42.672;23.282;2022-07-01T09:46:02;11.88;;;5.72;;
35990;SDS011;22064;42.672;23.282;2022-07-01T09:51:01;11.80;;;5.40;;
35990;SDS011;22064;42.672;23.282;2022-07-01T09:53:28;8.13;;;4.65;;
35990;SDS011;22064;42.672;23.282;2022-07-01T09:55:54;8.25;;;4.32;;
35990;SDS011;22064;42.672;23.282;2022-07-01T09:58:19;6.57;;;4.32;;
35990;SDS011;22064;42.672;23.282;2022-07-01T10:00:45;6.68;;;4.57;;
35990;SDS011;22064;42.672;23.282;2022-07-01T10:03:11;8.70;;;4.60;;
35990;SDS011;22064;42.672;23.282;2022-07-01T10:05:39;8.05;;;4.93;;
35990;SDS011;22064;42.672;23.282;2022-07-01T10:13:31;10.60;;;5.55;;
35990;SDS011;22064;42.672;23.282;2022-07-01T10:15:59;11.02;;;4.95;;
35990;SDS011;22064;42.672;23.282;2022-07-01T10:18:27;11.10;;;5.05;;
35990;SDS011;22064;42.672;23.282;2022-07-01T10:20:54;11.52;;;4.93;;
35990;SDS011;22064;42.672;23.282;2022-07-01T10:23:22;6.57;;;4.60;;
35990;SDS011;22064;42.672;23.282;2022-07-01T10:25:53;9.35;;;5.03;;
35990;SDS011;22064;42.672;23.282;2022-07-01T10:28:41;5.68;;;4.38;;
35990;SDS011;22064;42.672;23.282;2022-07-01T10:31:17;6.93;;;4.47;;
35990;SDS011;22064;42.672;23.282;2022-07-01T10:33:45;7.20;;;4.85;;
35990;SDS011;22064;42.672;23.282;2022-07-01T10:44:19;7.97;;;4.35;;
35990;SDS011;22064;42.672;23.282;2022-07-01T10:49:15;6.60;;;4.43;;
35990;SDS011;22064;42.672;23.282;2022-07-01T10:52:08;7.28;;;4.70;;
35990;SDS011;22064;42.672;23.282;2022-07-01T10:58:02;8.32;;;4.78;;
35990;SDS011;22064;42.672;23.282;2022-07-01T11:07:26;8.90;;;5.00;;
35990;SDS011;22064;42.672;23.282;2022-07-01T11:09:53;9.70;;;5.10;;
35990;SDS011;22064;42.672;23.282;2022-07-01T11:12:20;6.63;;;4.97;;
35990;SDS011;22064;42.672;23.282;2022-07-01T11:14:48;7.10;;;4.43;;
35990;SDS011;22064;42.672;23.282;2022-07-01T11:17:14;5.97;;;4.55;;
35990;SDS011;22064;42.672;23.282;2022-07-01T11:19:40;9.73;;;4.93;;
35990;SDS011;22064;42.672;23.282;2022-07-01T11:22:17;5.70;;;4.47;;
35990;SDS011;22064;42.672;23.282;2022-07-01T11:24:44;6.53;;;4.72;;
35990;SDS011;22064;42.672;23.282;2022-07-01T11:27:09;9.10;;;4.65;;
35990;SDS011;22064;42.672;23.282;2022-07-01T11:29:35;7.32;;;4.70;;
35990;SDS011;22064;42.672;23.282;2022-07-01T11:32:01;8.43;;;4.45;;
35990;SDS011;22064;42.672;23.282;2022-07-01T11:34:28;11.13;;;4.93;;
35990;SDS011;22064;42.672;23.282;2022-07-01T11:36:54;8.85;;;5.43;;
35990;SDS011;22064;42.672;23.282;2022-07-01T11:39:39;9.25;;;5.22;;
35990;SDS011;22064;42.672;23.282;2022-07-01T11:42:07;8.45;;;5.20;;
35990;SDS011;22064;42.672;23.282;2022-07-01T11:47:02;7.80;;;4.68;;
35990;SDS011;22064;42.672;23.282;2022-07-01T11:49:32;5.40;;;4.20;;
35990;SDS011;22064;42.672;23.282;2022-07-01T11:51:59;7.78;;;4.35;;
35990;SDS011;22064;42.672;23.282;2022-07-01T11:54:28;8.65;;;5.00;;
35990;SDS011;22064;42.672;23.282;2022-07-01T11:56:54;7.88;;;4.60;;
35990;SDS011;22064;42.672;23.282;2022-07-01T11:59:20;8.90;;;4.97;;
35990;SDS011;22064;42.672;23.282;2022-07-01T12:01:52;8.32;;;4.40;;
35990;SDS011;22064;42.672;23.282;2022-07-01T12:04:19;7.13;;;4.40;;
35990;SDS011;22064;42.672;23.282;2022-07-01T12:06:45;12.32;;;4.93;;
35990;SDS011;22064;42.672;23.282;2022-07-01T12:09:18;12.38;;;5.28;;
35990;SDS011;22064;42.672;23.282;2022-07-01T12:11:48;8.80;;;4.60;;
35990;SDS011;22064;42.672;23.282;2022-07-01T12:14:25;10.43;;;4.38;;
35990;SDS011;22064;42.672;23.282;2022-07-01T12:17:01;6.47;;;4.50;;
35990;SDS011;22064;42.672;23.282;2022-07-01T12:19:29;6.38;;;4.50;;
35990;SDS011;22064;42.672;23.282;2022-07-01T12:22:05;6.13;;;3.70;;
35990;SDS011;22064;42.672;23.282;2022-07-01T12:24:33;7.15;;;4.03;;
35990;SDS011;22064;42.672;23.282;2022-07-01T12:29:25;6.35;;;3.78;;
35990;SDS011;22064;42.672;23.282;2022-07-01T12:31:59;9.37;;;4.50;;
35990;SDS011;22064;42.672;23.282;2022-07-01T12:34:40;7.47;;;4.55;;
35990;SDS011;22064;42.672;23.282;2022-07-01T12:37:14;7.80;;;4.45;;
35990;SDS011;22064;42.672;23.282;2022-07-01T12:42:19;7.13;;;4.28;;
35990;SDS011;22064;42.672;23.282;2022-07-01T12:44:45;7.00;;;3.88;;
35990;SDS011;22064;42.672;23.282;2022-07-01T12:47:21;6.22;;;4.13;;
35990;SDS011;22064;42.672;23.282;2022-07-01T12:50:10;4.80;;;4.30;;
35990;SDS011;22064;42.672;23.282;2022-07-01T12:52:38;5.90;;;4.28;;
35990;SDS011;22064;42.672;23.282;2022-07-01T12:55:16;6.15;;;4.28;;
35990;SDS011;22064;42.672;23.282;2022-07-01T12:57:45;5.95;;;4.30;;
35990;SDS011;22064;42.672;23.282;2022-07-01T13:00:16;8.95;;;4.40;;
35990;SDS011;22064;42.672;23.282;2022-07-01T13:02:42;5.80;;;4.00;;
35990;SDS011;22064;42.672;23.282;2022-07-01T13:05:08;9.23;;;4.30;;
35990;SDS011;22064;42.672;23.282;2022-07-01T13:07:34;8.60;;;4.60;;
35990;SDS011;22064;42.672;23.282;2022-07-01T13:10:00;5.57;;;4.15;;
35990;SDS011;22064;42.672;23.282;2022-07-01T13:12:26;6.47;;;4.30;;
35990;SDS011;22064;42.672;23.282;2022-07-01T13:14:51;6.10;;;4.40;;
35990;SDS011;22064;42.672;23.282;2022-07-01T13:17:17;8.68;;;4.65;;
35990;SDS011;22064;42.672;23.282;2022-07-01T13:19:42;9.00;;;5.00;;
35990;SDS011;22064;42.672;23.282;2022-07-01T13:22:08;9.40;;;5.30;;
35990;SDS011;22064;42.672;23.282;2022-07-01T13:24:34;7.32;;;4.80;;
35990;SDS011;22064;42.672;23.282;2022-07-01T13:26:59;8.35;;;5.40;;
35990;SDS011;22064;42.672;23.282;2022-07-01T13:29:26;7.55;;;5.07;;
35990;SDS011;22064;42.672;23.282;2022-07-01T13:31:51;7.75;;;5.18;;
35990;SDS011;22064;42.672;23.282;2022-07-01T13:34:17;9.13;;;4.78;;
35990;SDS011;22064;42.672;23.282;2022-07-01T13:36:42;7.13;;;4.97;;
35990;SDS011;22064;42.672;23.282;2022-07-01T13:39:08;8.45;;;5.20;;
35990;SDS011;22064;42.672;23.282;2022-07-01T13:41:34;7.82;;;4.70;;
35990;SDS011;22064;42.672;23.282;2022-07-01T13:44:00;13.15;;;5.80;;
35990;SDS011;22064;42.672;23.282;2022-07-01T13:46:26;7.93;;;4.90;;
35990;SDS011;22064;42.672;23.282;2022-07-01T13:48:52;8.82;;;4.97;;
35990;SDS011;22064;42.672;23.282;2022-07-01T13:51:17;7.78;;;4.53;;
35990;SDS011;22064;42.672;23.282;2022-07-01T13:53:43;7.05;;;5.47;;
35990;SDS011;22064;42.672;23.282;2022-07-01T13:56:09;8.15;;;4.97;;
35990;SDS011;22064;42.672;23.282;2022-07-01T13:58:34;9.27;;;5.05;;
35990;SDS011;22064;42.672;23.282;2022-07-01T14:01:00;7.70;;;5.18;;
35990;SDS011;22064;42.672;23.282;2022-07-01T14:03:26;7.63;;;5.28;;
35990;SDS011;22064;42.672;23.282;2022-07-01T14:05:52;7.55;;;5.97;;
35990;SDS011;22064;42.672;23.282;2022-07-01T14:08:18;7.30;;;5.45;;
35990;SDS011;22064;42.672;23.282;2022-07-01T14:10:43;12.55;;;5.50;;
35990;SDS011;22064;42.672;23.282;2022-07-01T14:13:09;7.30;;;5.22;;
35990;SDS011;22064;42.672;23.282;2022-07-01T14:15:35;9.48;;;6.22;;
35990;SDS011;22064;42.672;23.282;2022-07-01T14:18:02;8.75;;;5.78;;
35990;SDS011;22064;42.672;23.282;2022-07-01T14:20:28;9.93;;;5.82;;
35990;SDS011;22064;42.672;23.282;2022-07-01T14:22:53;9.27;;;5.72;;
35990;SDS011;22064;42.672;23.282;2022-07-01T14:25:22;9.43;;;5.93;;
35990;SDS011;22064;42.672;23.282;2022-07-01T14:27:47;8.75;;;5.78;;
35990;SDS011;22064;42.672;23.282;2022-07-01T14:30:14;8.40;;;5.80;;
35990;SDS011;22064;42.672;23.282;2022-07-01T14:32:40;12.43;;;6.00;;
35990;SDS011;22064;42.672;23.282;2022-07-01T14:35:06;9.13;;;5.70;;
35990;SDS011;22064;42.672;23.282;2022-07-01T14:37:32;9.50;;;5.03;;
35990;SDS011;22064;42.672;23.282;2022-07-01T14:39:58;10.10;;;5.43;;
35990;SDS011;22064;42.672;23.282;2022-07-01T14:42:24;13.25;;;5.55;;
35990;SDS011;22064;42.672;23.282;2022-07-01T14:44:51;10.45;;;5.90;;
35990;SDS011;22064;42.672;23.282;2022-07-01T14:47:18;9.40;;;5.82;;
35990;SDS011;22064;42.672;23.282;2022-07-01T14:49:43;10.48;;;5.25;;
35990;SDS011;22064;42.672;23.282;2022-07-01T14:52:10;9.30;;;5.82;;
35990;SDS011;22064;42.672;23.282;2022-07-01T14:54:37;8.30;;;5.20;;
35990;SDS011;22064;42.672;23.282;2022-07-01T14:57:04;7.70;;;5.47;;
35990;SDS011;22064;42.672;23.282;2022-07-01T14:59:30;9.18;;;5.40;;
35990;SDS011;22064;42.672;23.282;2022-07-01T15:01:56;8.00;;;4.65;;
35990;SDS011;22064;42.672;23.282;2022-07-01T15:04:25;9.32;;;4.90;;
35990;SDS011;22064;42.672;23.282;2022-07-01T15:06:52;12.05;;;5.15;;